sensor_id;sensor_type;location;lat;lon;timestamp;temperature;humidity
40059;SHT31;25763;49.972;8.568;2023-06-26T00:02:24;21.35;64.97
40059;SHT31;25763;49.972;8.568;2023-06-26T00:04:50;21.32;64.94
40059;SHT31;25763;49.972;8.568;2023-06-26T00:07:19;21.28;65.10
40059;SHT31;25763;49.972;8.568;2023-06-26T00:09:45;21.24;65.42
40059;SHT31;25763;49.972;8.568;2023-06-26T00:12:11;21.18;65.43
40059;SHT31;25763;49.972;8.568;2023-06-26T00:14:36;21.16;65.60
40059;SHT31;25763;49.972;8.568;2023-06-26T00:17:01;21.11;65.66
40059;SHT31;25763;49.972;8.568;2023-06-26T00:19:27;21.09;67.02
40059;SHT31;25763;49.972;8.568;2023-06-26T00:21:52;21.09;66.96
40059;SHT31;25763;49.972;8.568;2023-06-26T00:24:17;20.98;66.79
40059;SHT31;25763;49.972;8.568;2023-06-26T00:26:46;20.98;66.59
40059;SHT31;25763;49.972;8.568;2023-06-26T00:29:12;20.95;66.98
40059;SHT31;25763;49.972;8.568;2023-06-26T00:31:37;20.91;67.33
40059;SHT31;25763;49.972;8.568;2023-06-26T00:34:03;20.87;67.43
40059;SHT31;25763;49.972;8.568;2023-06-26T00:36:28;20.79;67.60
40059;SHT31;25763;49.972;8.568;2023-06-26T00:38:54;20.60;67.04
40059;SHT31;25763;49.972;8.568;2023-06-26T00:41:19;20.42;67.34
40059;SHT31;25763;49.972;8.568;2023-06-26T00:43:45;20.24;67.63
40059;SHT31;25763;49.972;8.568;2023-06-26T00:46:12;19.90;68.28
40059;SHT31;25763;49.972;8.568;2023-06-26T00:48:39;19.84;68.42
40059;SHT31;25763;49.972;8.568;2023-06-26T00:51:04;19.66;69.08
40059;SHT31;25763;49.972;8.568;2023-06-26T00:53:31;19.58;69.34
40059;SHT31;25763;49.972;8.568;2023-06-26T00:55:56;19.27;70.03
40059;SHT31;25763;49.972;8.568;2023-06-26T00:58:23;19.21;70.22
40059;SHT31;25763;49.972;8.568;2023-06-26T01:00:50;19.06;70.47
40059;SHT31;25763;49.972;8.568;2023-06-26T01:03:16;18.90;70.99
40059;SHT31;25763;49.972;8.568;2023-06-26T01:05:41;18.90;70.97
40059;SHT31;25763;49.972;8.568;2023-06-26T01:08:11;18.77;71.41
40059;SHT31;25763;49.972;8.568;2023-06-26T01:10:37;18.76;71.32
40059;SHT31;25763;49.972;8.568;2023-06-26T01:13:03;18.83;71.29
40059;SHT31;25763;49.972;8.568;2023-06-26T01:15:29;18.62;71.57
40059;SHT31;25763;49.972;8.568;2023-06-26T01:17:55;18.65;71.69
40059;SHT31;25763;49.972;8.568;2023-06-26T01:20:25;18.65;72.02
40059;SHT31;25763;49.972;8.568;2023-06-26T01:23:12;18.51;72.33
40059;SHT31;25763;49.972;8.568;2023-06-26T01:28:39;18.67;72.20
40059;SHT31;25763;49.972;8.568;2023-06-26T01:31:06;18.80;71.99
40059;SHT31;25763;49.972;8.568;2023-06-26T01:33:32;18.92;71.82
40059;SHT31;25763;49.972;8.568;2023-06-26T01:35:58;18.97;71.40
40059;SHT31;25763;49.972;8.568;2023-06-26T01:38:23;19.02;71.42
40059;SHT31;25763;49.972;8.568;2023-06-26T01:40:50;19.07;71.19
40059;SHT31;25763;49.972;8.568;2023-06-26T01:43:29;19.14;71.30
40059;SHT31;25763;49.972;8.568;2023-06-26T01:46:00;19.15;71.14
40059;SHT31;25763;49.972;8.568;2023-06-26T01:48:31;19.00;71.10
40059;SHT31;25763;49.972;8.568;2023-06-26T01:50:58;18.65;72.17
40059;SHT31;25763;49.972;8.568;2023-06-26T01:53:25;18.55;72.31
40059;SHT31;25763;49.972;8.568;2023-06-26T01:56:00;18.47;72.34
40059;SHT31;25763;49.972;8.568;2023-06-26T01:58:27;18.47;72.56
40059;SHT31;25763;49.972;8.568;2023-06-26T02:00:53;18.34;72.92
40059;SHT31;25763;49.972;8.568;2023-06-26T02:03:19;18.30;72.89
40059;SHT31;25763;49.972;8.568;2023-06-26T02:05:45;18.10;73.22
40059;SHT31;25763;49.972;8.568;2023-06-26T02:08:14;18.16;73.25
40059;SHT31;25763;49.972;8.568;2023-06-26T02:10:39;18.03;73.53
40059;SHT31;25763;49.972;8.568;2023-06-26T02:13:04;17.96;73.62
40059;SHT31;25763;49.972;8.568;2023-06-26T02:15:30;17.82;74.59
40059;SHT31;25763;49.972;8.568;2023-06-26T02:17:55;17.88;74.40
40059;SHT31;25763;49.972;8.568;2023-06-26T02:20:20;17.99;74.39
40059;SHT31;25763;49.972;8.568;2023-06-26T02:22:46;18.08;74.27
40059;SHT31;25763;49.972;8.568;2023-06-26T02:25:11;18.14;73.95
40059;SHT31;25763;49.972;8.568;2023-06-26T02:27:38;18.23;74.00
40059;SHT31;25763;49.972;8.568;2023-06-26T02:30:03;18.05;73.52
40059;SHT31;25763;49.972;8.568;2023-06-26T02:32:29;17.85;74.16
40059;SHT31;25763;49.972;8.568;2023-06-26T02:34:54;17.85;74.24
40059;SHT31;25763;49.972;8.568;2023-06-26T02:37:20;17.85;74.10
40059;SHT31;25763;49.972;8.568;2023-06-26T02:39:45;17.99;74.28
40059;SHT31;25763;49.972;8.568;2023-06-26T02:42:11;18.05;73.86
40059;SHT31;25763;49.972;8.568;2023-06-26T02:44:36;17.96;73.85
40059;SHT31;25763;49.972;8.568;2023-06-26T02:47:01;17.85;74.36
40059;SHT31;25763;49.972;8.568;2023-06-26T02:49:27;17.74;74.79
40059;SHT31;25763;49.972;8.568;2023-06-26T02:51:52;17.61;74.86
40059;SHT31;25763;49.972;8.568;2023-06-26T02:54:17;17.60;74.78
40059;SHT31;25763;49.972;8.568;2023-06-26T02:56:43;17.75;74.61
40059;SHT31;25763;49.972;8.568;2023-06-26T02:59:08;17.81;74.85
40059;SHT31;25763;49.972;8.568;2023-06-26T03:01:33;17.89;74.64
40059;SHT31;25763;49.972;8.568;2023-06-26T03:04:00;17.99;74.29
40059;SHT31;25763;49.972;8.568;2023-06-26T03:06:26;17.95;73.92
40059;SHT31;25763;49.972;8.568;2023-06-26T03:08:53;18.09;74.16
40059;SHT31;25763;49.972;8.568;2023-06-26T03:11:19;18.12;74.19
40059;SHT31;25763;49.972;8.568;2023-06-26T03:13:44;18.13;73.68
40059;SHT31;25763;49.972;8.568;2023-06-26T03:16:09;18.16;73.68
40059;SHT31;25763;49.972;8.568;2023-06-26T03:18:35;18.20;73.75
40059;SHT31;25763;49.972;8.568;2023-06-26T03:21:00;18.24;73.47
40059;SHT31;25763;49.972;8.568;2023-06-26T03:23:25;18.27;73.44
40059;SHT31;25763;49.972;8.568;2023-06-26T03:25:51;18.28;73.67
40059;SHT31;25763;49.972;8.568;2023-06-26T03:28:17;18.28;73.54
40059;SHT31;25763;49.972;8.568;2023-06-26T03:30:42;18.28;73.38
40059;SHT31;25763;49.972;8.568;2023-06-26T03:33:08;18.26;73.06
40059;SHT31;25763;49.972;8.568;2023-06-26T03:35:33;18.27;73.11
40059;SHT31;25763;49.972;8.568;2023-06-26T03:37:59;18.27;73.15
40059;SHT31;25763;49.972;8.568;2023-06-26T03:40:26;18.27;73.33
40059;SHT31;25763;49.972;8.568;2023-06-26T03:42:51;18.27;73.33
40059;SHT31;25763;49.972;8.568;2023-06-26T03:45:16;18.27;73.22
40059;SHT31;25763;49.972;8.568;2023-06-26T03:47:42;18.31;73.07
40059;SHT31;25763;49.972;8.568;2023-06-26T03:50:08;18.33;73.07
40059;SHT31;25763;49.972;8.568;2023-06-26T03:52:34;18.31;73.05
40059;SHT31;25763;49.972;8.568;2023-06-26T03:55:00;18.33;73.30
40059;SHT31;25763;49.972;8.568;2023-06-26T03:57:25;18.37;73.29
40059;SHT31;25763;49.972;8.568;2023-06-26T03:59:52;18.37;73.31
40059;SHT31;25763;49.972;8.568;2023-06-26T04:02:17;18.35;73.28
40059;SHT31;25763;49.972;8.568;2023-06-26T04:04:43;18.40;73.22
40059;SHT31;25763;49.972;8.568;2023-06-26T04:07:09;18.38;73.33
40059;SHT31;25763;49.972;8.568;2023-06-26T04:09:34;18.43;73.30
40059;SHT31;25763;49.972;8.568;2023-06-26T04:12:00;18.40;72.59
40059;SHT31;25763;49.972;8.568;2023-06-26T04:14:25;18.47;73.02
40059;SHT31;25763;49.972;8.568;2023-06-26T04:16:50;18.50;72.68
40059;SHT31;25763;49.972;8.568;2023-06-26T04:19:16;18.52;73.39
40059;SHT31;25763;49.972;8.568;2023-06-26T04:21:41;18.57;73.54
40059;SHT31;25763;49.972;8.568;2023-06-26T04:24:07;18.52;73.17
40059;SHT31;25763;49.972;8.568;2023-06-26T04:26:32;18.55;72.68
40059;SHT31;25763;49.972;8.568;2023-06-26T04:28:58;18.48;72.27
40059;SHT31;25763;49.972;8.568;2023-06-26T04:31:24;18.40;72.50
40059;SHT31;25763;49.972;8.568;2023-06-26T04:33:50;18.31;72.70
40059;SHT31;25763;49.972;8.568;2023-06-26T04:36:17;18.31;73.10
40059;SHT31;25763;49.972;8.568;2023-06-26T04:38:42;18.34;73.44
40059;SHT31;25763;49.972;8.568;2023-06-26T04:41:07;18.35;73.60
40059;SHT31;25763;49.972;8.568;2023-06-26T04:43:33;18.34;73.46
40059;SHT31;25763;49.972;8.568;2023-06-26T04:45:58;18.43;73.92
40059;SHT31;25763;49.972;8.568;2023-06-26T04:48:23;18.52;74.15
40059;SHT31;25763;49.972;8.568;2023-06-26T04:50:49;18.61;74.66
40059;SHT31;25763;49.972;8.568;2023-06-26T04:53:20;18.69;74.33
40059;SHT31;25763;49.972;8.568;2023-06-26T04:55:46;18.79;74.94
40059;SHT31;25763;49.972;8.568;2023-06-26T04:58:11;18.86;74.68
40059;SHT31;25763;49.972;8.568;2023-06-26T05:00:36;18.92;74.05
40059;SHT31;25763;49.972;8.568;2023-06-26T05:03:02;18.93;73.37
40059;SHT31;25763;49.972;8.568;2023-06-26T05:05:28;18.99;72.89
40059;SHT31;25763;49.972;8.568;2023-06-26T05:07:54;19.03;73.07
40059;SHT31;25763;49.972;8.568;2023-06-26T05:10:19;19.08;72.86
40059;SHT31;25763;49.972;8.568;2023-06-26T05:12:45;19.18;73.41
40059;SHT31;25763;49.972;8.568;2023-06-26T05:15:10;19.37;74.04
40059;SHT31;25763;49.972;8.568;2023-06-26T05:17:36;19.52;74.24
40059;SHT31;25763;49.972;8.568;2023-06-26T05:20:01;19.72;74.17
40059;SHT31;25763;49.972;8.568;2023-06-26T05:22:26;19.84;73.45
40059;SHT31;25763;49.972;8.568;2023-06-26T05:24:54;20.00;73.23
40059;SHT31;25763;49.972;8.568;2023-06-26T05:27:20;19.96;72.11
40059;SHT31;25763;49.972;8.568;2023-06-26T05:29:47;20.12;72.02
40059;SHT31;25763;49.972;8.568;2023-06-26T05:32:15;20.22;71.28
40059;SHT31;25763;49.972;8.568;2023-06-26T05:34:45;20.42;71.79
40059;SHT31;25763;49.972;8.568;2023-06-26T05:37:14;20.50;71.01
40059;SHT31;25763;49.972;8.568;2023-06-26T05:39:41;20.64;71.29
40059;SHT31;25763;49.972;8.568;2023-06-26T05:42:07;20.83;71.06
40059;SHT31;25763;49.972;8.568;2023-06-26T05:44:33;20.90;70.51
40059;SHT31;25763;49.972;8.568;2023-06-26T05:46:58;21.08;71.61
40059;SHT31;25763;49.972;8.568;2023-06-26T05:49:24;21.20;70.70
40059;SHT31;25763;49.972;8.568;2023-06-26T05:51:49;21.29;70.13
40059;SHT31;25763;49.972;8.568;2023-06-26T05:54:15;21.38;69.88
40059;SHT31;25763;49.972;8.568;2023-06-26T05:56:40;21.49;69.66
40059;SHT31;25763;49.972;8.568;2023-06-26T05:59:07;21.67;70.33
40059;SHT31;25763;49.972;8.568;2023-06-26T06:01:33;21.89;70.82
40059;SHT31;25763;49.972;8.568;2023-06-26T06:03:59;22.06;70.14
40059;SHT31;25763;49.972;8.568;2023-06-26T06:06:24;22.17;69.84
40059;SHT31;25763;49.972;8.568;2023-06-26T06:08:50;22.36;70.41
40059;SHT31;25763;49.972;8.568;2023-06-26T06:11:15;22.40;67.47
40059;SHT31;25763;49.972;8.568;2023-06-26T06:13:40;22.32;66.52
40059;SHT31;25763;49.972;8.568;2023-06-26T06:16:06;22.47;67.04
40059;SHT31;25763;49.972;8.568;2023-06-26T06:18:31;22.61;67.54
40059;SHT31;25763;49.972;8.568;2023-06-26T06:20:56;22.69;67.07
40059;SHT31;25763;49.972;8.568;2023-06-26T06:23:22;22.82;66.53
40059;SHT31;25763;49.972;8.568;2023-06-26T06:25:48;22.89;66.47
40059;SHT31;25763;49.972;8.568;2023-06-26T06:28:14;23.06;66.46
40059;SHT31;25763;49.972;8.568;2023-06-26T06:30:41;22.78;64.07
40059;SHT31;25763;49.972;8.568;2023-06-26T06:33:07;22.79;64.08
40059;SHT31;25763;49.972;8.568;2023-06-26T06:35:32;23.00;63.89
40059;SHT31;25763;49.972;8.568;2023-06-26T06:37:57;23.27;64.27
40059;SHT31;25763;49.972;8.568;2023-06-26T06:40:23;23.28;62.64
40059;SHT31;25763;49.972;8.568;2023-06-26T06:42:50;23.38;62.46
40059;SHT31;25763;49.972;8.568;2023-06-26T06:45:15;23.24;61.69
40059;SHT31;25763;49.972;8.568;2023-06-26T06:47:40;23.50;62.53
40059;SHT31;25763;49.972;8.568;2023-06-26T06:50:06;23.58;60.87
40059;SHT31;25763;49.972;8.568;2023-06-26T06:52:36;23.57;60.87
40059;SHT31;25763;49.972;8.568;2023-06-26T06:55:02;23.61;60.84
40059;SHT31;25763;49.972;8.568;2023-06-26T06:57:30;23.88;61.62
40059;SHT31;25763;49.972;8.568;2023-06-26T06:59:55;24.17;60.92
40059;SHT31;25763;49.972;8.568;2023-06-26T07:02:21;24.22;59.78
40059;SHT31;25763;49.972;8.568;2023-06-26T07:04:46;24.07;58.35
40059;SHT31;25763;49.972;8.568;2023-06-26T07:07:12;24.34;59.52
40059;SHT31;25763;49.972;8.568;2023-06-26T07:09:39;24.59;60.08
40059;SHT31;25763;49.972;8.568;2023-06-26T07:12:05;24.70;58.81
40059;SHT31;25763;49.972;8.568;2023-06-26T07:14:30;24.80;58.23
40059;SHT31;25763;49.972;8.568;2023-06-26T07:16:56;24.70;58.32
40059;SHT31;25763;49.972;8.568;2023-06-26T07:19:21;24.66;57.49
40059;SHT31;25763;49.972;8.568;2023-06-26T07:21:46;24.94;58.22
40059;SHT31;25763;49.972;8.568;2023-06-26T07:24:12;24.97;58.48
40059;SHT31;25763;49.972;8.568;2023-06-26T07:26:37;25.12;56.99
40059;SHT31;25763;49.972;8.568;2023-06-26T07:29:03;25.28;56.90
40059;SHT31;25763;49.972;8.568;2023-06-26T07:31:29;25.35;56.10
40059;SHT31;25763;49.972;8.568;2023-06-26T07:33:54;25.36;56.81
40059;SHT31;25763;49.972;8.568;2023-06-26T07:36:20;25.65;58.60
40059;SHT31;25763;49.972;8.568;2023-06-26T07:38:45;25.88;57.44
40059;SHT31;25763;49.972;8.568;2023-06-26T07:41:10;26.06;57.00
40059;SHT31;25763;49.972;8.568;2023-06-26T07:43:36;26.05;55.55
40059;SHT31;25763;49.972;8.568;2023-06-26T07:46:01;26.14;56.37
40059;SHT31;25763;49.972;8.568;2023-06-26T07:48:26;26.24;56.17
40059;SHT31;25763;49.972;8.568;2023-06-26T07:50:52;26.28;55.04
40059;SHT31;25763;49.972;8.568;2023-06-26T07:53:18;26.06;53.69
40059;SHT31;25763;49.972;8.568;2023-06-26T07:55:43;26.21;54.91
40059;SHT31;25763;49.972;8.568;2023-06-26T07:58:09;26.43;54.26
40059;SHT31;25763;49.972;8.568;2023-06-26T08:00:35;26.53;52.38
40059;SHT31;25763;49.972;8.568;2023-06-26T08:03:00;26.59;52.33
40059;SHT31;25763;49.972;8.568;2023-06-26T08:05:26;26.61;52.30
40059;SHT31;25763;49.972;8.568;2023-06-26T08:07:51;26.64;52.02
40059;SHT31;25763;49.972;8.568;2023-06-26T08:10:16;26.71;51.37
40059;SHT31;25763;49.972;8.568;2023-06-26T08:12:42;26.84;51.98
40059;SHT31;25763;49.972;8.568;2023-06-26T08:15:10;27.04;51.89
40059;SHT31;25763;49.972;8.568;2023-06-26T08:17:37;27.49;54.35
40059;SHT31;25763;49.972;8.568;2023-06-26T08:20:04;27.61;49.93
40059;SHT31;25763;49.972;8.568;2023-06-26T08:22:30;27.51;51.58
40059;SHT31;25763;49.972;8.568;2023-06-26T08:24:56;27.43;50.81
40059;SHT31;25763;49.972;8.568;2023-06-26T08:27:21;27.40;51.33
40059;SHT31;25763;49.972;8.568;2023-06-26T08:29:47;27.51;51.79
40059;SHT31;25763;49.972;8.568;2023-06-26T08:32:12;27.50;51.31
40059;SHT31;25763;49.972;8.568;2023-06-26T08:34:37;27.33;51.47
40059;SHT31;25763;49.972;8.568;2023-06-26T08:37:03;27.29;51.34
40059;SHT31;25763;49.972;8.568;2023-06-26T08:39:28;27.43;51.31
40059;SHT31;25763;49.972;8.568;2023-06-26T08:41:53;27.70;53.01
40059;SHT31;25763;49.972;8.568;2023-06-26T08:44:19;27.64;51.25
40059;SHT31;25763;49.972;8.568;2023-06-26T08:46:49;27.74;51.50
40059;SHT31;25763;49.972;8.568;2023-06-26T08:49:22;27.80;51.66
40059;SHT31;25763;49.972;8.568;2023-06-26T08:52:01;27.82;50.55
40059;SHT31;25763;49.972;8.568;2023-06-26T08:54:32;27.93;50.93
40059;SHT31;25763;49.972;8.568;2023-06-26T08:56:59;27.96;50.08
40059;SHT31;25763;49.972;8.568;2023-06-26T08:59:25;28.26;52.01
40059;SHT31;25763;49.972;8.568;2023-06-26T09:01:51;28.47;49.28
40059;SHT31;25763;49.972;8.568;2023-06-26T09:04:16;28.40;47.68
40059;SHT31;25763;49.972;8.568;2023-06-26T09:06:42;28.54;48.45
40059;SHT31;25763;49.972;8.568;2023-06-26T09:09:07;28.36;48.20
40059;SHT31;25763;49.972;8.568;2023-06-26T09:11:33;28.32;49.83
40059;SHT31;25763;49.972;8.568;2023-06-26T09:13:59;28.43;47.67
40059;SHT31;25763;49.972;8.568;2023-06-26T09:16:25;28.63;47.23
40059;SHT31;25763;49.972;8.568;2023-06-26T09:18:53;28.63;46.43
40059;SHT31;25763;49.972;8.568;2023-06-26T09:21:19;28.79;46.66
40059;SHT31;25763;49.972;8.568;2023-06-26T09:23:45;28.96;47.08
40059;SHT31;25763;49.972;8.568;2023-06-26T09:26:11;29.09;46.44
40059;SHT31;25763;49.972;8.568;2023-06-26T09:28:36;29.30;46.57
40059;SHT31;25763;49.972;8.568;2023-06-26T09:31:03;29.38;46.06
40059;SHT31;25763;49.972;8.568;2023-06-26T09:33:33;29.41;45.70
40059;SHT31;25763;49.972;8.568;2023-06-26T09:36:01;29.35;46.99
40059;SHT31;25763;49.972;8.568;2023-06-26T09:38:26;29.24;44.19
40059;SHT31;25763;49.972;8.568;2023-06-26T09:40:52;29.20;44.60
40059;SHT31;25763;49.972;8.568;2023-06-26T09:43:18;29.35;45.07
40059;SHT31;25763;49.972;8.568;2023-06-26T09:45:44;29.59;45.43
40059;SHT31;25763;49.972;8.568;2023-06-26T09:48:09;29.90;44.20
40059;SHT31;25763;49.972;8.568;2023-06-26T09:50:37;29.73;44.43
40059;SHT31;25763;49.972;8.568;2023-06-26T09:53:10;29.68;45.55
40059;SHT31;25763;49.972;8.568;2023-06-26T09:55:36;29.69;45.43
40059;SHT31;25763;49.972;8.568;2023-06-26T09:58:03;29.86;46.33
40059;SHT31;25763;49.972;8.568;2023-06-26T10:00:30;29.94;46.08
40059;SHT31;25763;49.972;8.568;2023-06-26T10:02:56;29.57;44.48
40059;SHT31;25763;49.972;8.568;2023-06-26T10:05:21;29.40;45.73
40059;SHT31;25763;49.972;8.568;2023-06-26T10:07:47;29.48;47.16
40059;SHT31;25763;49.972;8.568;2023-06-26T10:10:13;29.30;45.04
40059;SHT31;25763;49.972;8.568;2023-06-26T10:12:42;29.09;46.46
40059;SHT31;25763;49.972;8.568;2023-06-26T10:15:10;29.14;45.94
40059;SHT31;25763;49.972;8.568;2023-06-26T10:17:38;29.16;46.31
40059;SHT31;25763;49.972;8.568;2023-06-26T10:20:06;28.92;46.43
40059;SHT31;25763;49.972;8.568;2023-06-26T10:22:37;28.74;46.50
40059;SHT31;25763;49.972;8.568;2023-06-26T10:25:06;28.71;47.57
40059;SHT31;25763;49.972;8.568;2023-06-26T10:27:36;29.14;46.36
40059;SHT31;25763;49.972;8.568;2023-06-26T10:30:08;29.54;46.23
40059;SHT31;25763;49.972;8.568;2023-06-26T10:32:34;29.37;45.69
40059;SHT31;25763;49.972;8.568;2023-06-26T10:35:00;29.38;46.80
40059;SHT31;25763;49.972;8.568;2023-06-26T10:37:47;29.82;47.21
40059;SHT31;25763;49.972;8.568;2023-06-26T10:40:14;30.25;46.15
40059;SHT31;25763;49.972;8.568;2023-06-26T10:42:40;30.56;47.21
40059;SHT31;25763;49.972;8.568;2023-06-26T10:45:28;30.48;44.43
40059;SHT31;25763;49.972;8.568;2023-06-26T10:47:53;30.49;44.93
40059;SHT31;25763;49.972;8.568;2023-06-26T10:50:29;30.41;44.74
40059;SHT31;25763;49.972;8.568;2023-06-26T10:53:15;30.61;44.87
40059;SHT31;25763;49.972;8.568;2023-06-26T10:58:43;30.80;44.34
40059;SHT31;25763;49.972;8.568;2023-06-26T11:04:35;31.03;44.82
40059;SHT31;25763;49.972;8.568;2023-06-26T11:06:29;31.38;43.40
40059;SHT31;25763;49.972;8.568;2023-06-26T11:14:23;31.17;41.46
40059;SHT31;25763;49.972;8.568;2023-06-26T11:16:49;31.31;42.82
40059;SHT31;25763;49.972;8.568;2023-06-26T11:19:17;31.36;41.78
40059;SHT31;25763;49.972;8.568;2023-06-26T11:21:43;31.35;41.53
40059;SHT31;25763;49.972;8.568;2023-06-26T11:24:11;31.04;42.27
40059;SHT31;25763;49.972;8.568;2023-06-26T11:26:40;31.06;42.93
40059;SHT31;25763;49.972;8.568;2023-06-26T11:29:06;31.12;42.71
40059;SHT31;25763;49.972;8.568;2023-06-26T11:31:34;31.20;43.40
40059;SHT31;25763;49.972;8.568;2023-06-26T11:34:05;31.20;42.59
40059;SHT31;25763;49.972;8.568;2023-06-26T11:36:31;31.10;43.22
40059;SHT31;25763;49.972;8.568;2023-06-26T11:38:59;31.52;43.26
40059;SHT31;25763;49.972;8.568;2023-06-26T11:41:27;32.01;42.60
40059;SHT31;25763;49.972;8.568;2023-06-26T11:43:54;32.05;40.69
40059;SHT31;25763;49.972;8.568;2023-06-26T11:46:21;31.97;40.84
40059;SHT31;25763;49.972;8.568;2023-06-26T11:48:47;31.73;40.36
40059;SHT31;25763;49.972;8.568;2023-06-26T11:51:14;31.21;40.57
40059;SHT31;25763;49.972;8.568;2023-06-26T11:53:44;31.31;40.88
40059;SHT31;25763;49.972;8.568;2023-06-26T11:56:11;31.45;40.15
40059;SHT31;25763;49.972;8.568;2023-06-26T12:01:20;31.69;40.56
40059;SHT31;25763;49.972;8.568;2023-06-26T12:03:46;31.12;39.48
40059;SHT31;25763;49.972;8.568;2023-06-26T12:06:12;30.80;40.40
40059;SHT31;25763;49.972;8.568;2023-06-26T12:08:37;31.10;40.95
40059;SHT31;25763;49.972;8.568;2023-06-26T12:11:03;30.87;40.05
40059;SHT31;25763;49.972;8.568;2023-06-26T12:13:30;30.56;41.84
40059;SHT31;25763;49.972;8.568;2023-06-26T12:15:55;30.52;41.80
40059;SHT31;25763;49.972;8.568;2023-06-26T12:18:22;30.65;41.19
40059;SHT31;25763;49.972;8.568;2023-06-26T12:20:49;31.03;40.24
40059;SHT31;25763;49.972;8.568;2023-06-26T12:23:14;31.14;38.90
40059;SHT31;25763;49.972;8.568;2023-06-26T12:25:40;31.43;40.09
40059;SHT31;25763;49.972;8.568;2023-06-26T12:28:17;31.52;39.26
40059;SHT31;25763;49.972;8.568;2023-06-26T12:30:47;31.24;38.49
40059;SHT31;25763;49.972;8.568;2023-06-26T12:33:14;31.03;39.44
40059;SHT31;25763;49.972;8.568;2023-06-26T12:35:39;31.20;39.45
40059;SHT31;25763;49.972;8.568;2023-06-26T12:38:07;31.52;39.65
40059;SHT31;25763;49.972;8.568;2023-06-26T12:40:35;31.62;39.14
40059;SHT31;25763;49.972;8.568;2023-06-26T12:43:11;31.67;38.22
40059;SHT31;25763;49.972;8.568;2023-06-26T12:45:40;31.17;37.49
40059;SHT31;25763;49.972;8.568;2023-06-26T12:48:12;31.24;38.02
40059;SHT31;25763;49.972;8.568;2023-06-26T12:50:43;31.49;38.21
40059;SHT31;25763;49.972;8.568;2023-06-26T12:53:10;31.66;36.83
40059;SHT31;25763;49.972;8.568;2023-06-26T12:55:36;31.62;36.58
40059;SHT31;25763;49.972;8.568;2023-06-26T12:58:01;31.42;36.21
40059;SHT31;25763;49.972;8.568;2023-06-26T13:00:26;31.21;34.23
40059;SHT31;25763;49.972;8.568;2023-06-26T13:02:52;31.14;36.94
40059;SHT31;25763;49.972;8.568;2023-06-26T13:05:17;30.95;40.92
40059;SHT31;25763;49.972;8.568;2023-06-26T13:07:42;30.91;41.70
40059;SHT31;25763;49.972;8.568;2023-06-26T13:10:08;30.91;43.33
40059;SHT31;25763;49.972;8.568;2023-06-26T13:12:33;31.11;43.00
40059;SHT31;25763;49.972;8.568;2023-06-26T13:14:59;31.31;42.84
40059;SHT31;25763;49.972;8.568;2023-06-26T13:17:24;31.49;43.47
40059;SHT31;25763;49.972;8.568;2023-06-26T13:19:50;31.39;43.69
40059;SHT31;25763;49.972;8.568;2023-06-26T13:22:15;31.52;44.58
40059;SHT31;25763;49.972;8.568;2023-06-26T13:24:40;31.47;44.02
40059;SHT31;25763;49.972;8.568;2023-06-26T13:27:06;31.47;43.69
40059;SHT31;25763;49.972;8.568;2023-06-26T13:29:31;31.47;44.42
40059;SHT31;25763;49.972;8.568;2023-06-26T13:31:57;31.55;44.71
40059;SHT31;25763;49.972;8.568;2023-06-26T13:34:24;31.35;44.05
40059;SHT31;25763;49.972;8.568;2023-06-26T13:36:49;31.34;44.23
40059;SHT31;25763;49.972;8.568;2023-06-26T13:39:15;31.04;43.39
40059;SHT31;25763;49.972;8.568;2023-06-26T13:41:40;30.95;44.98
40059;SHT31;25763;49.972;8.568;2023-06-26T13:44:05;31.22;45.12
40059;SHT31;25763;49.972;8.568;2023-06-26T13:46:31;31.29;43.99
40059;SHT31;25763;49.972;8.568;2023-06-26T13:48:56;31.21;44.19
40059;SHT31;25763;49.972;8.568;2023-06-26T13:51:21;30.98;44.08
40059;SHT31;25763;49.972;8.568;2023-06-26T13:53:47;30.62;44.32
40059;SHT31;25763;49.972;8.568;2023-06-26T13:56:12;30.41;44.18
40059;SHT31;25763;49.972;8.568;2023-06-26T13:58:37;30.42;44.51
40059;SHT31;25763;49.972;8.568;2023-06-26T14:01:04;30.63;44.42
40059;SHT31;25763;49.972;8.568;2023-06-26T14:03:30;30.68;43.80
40059;SHT31;25763;49.972;8.568;2023-06-26T14:05:55;30.76;43.27
40059;SHT31;25763;49.972;8.568;2023-06-26T14:08:20;30.48;43.75
40059;SHT31;25763;49.972;8.568;2023-06-26T14:10:46;30.06;43.33
40059;SHT31;25763;49.972;8.568;2023-06-26T14:13:11;29.99;43.43
40059;SHT31;25763;49.972;8.568;2023-06-26T14:15:40;30.00;45.21
40059;SHT31;25763;49.972;8.568;2023-06-26T14:18:06;30.14;44.40
40059;SHT31;25763;49.972;8.568;2023-06-26T14:20:31;30.36;43.50
40059;SHT31;25763;49.972;8.568;2023-06-26T14:22:58;30.45;43.90
40059;SHT31;25763;49.972;8.568;2023-06-26T14:25:23;30.10;42.38
40059;SHT31;25763;49.972;8.568;2023-06-26T14:27:48;29.89;43.48
40059;SHT31;25763;49.972;8.568;2023-06-26T14:30:14;29.90;42.86
40059;SHT31;25763;49.972;8.568;2023-06-26T14:32:39;30.13;43.21
40059;SHT31;25763;49.972;8.568;2023-06-26T14:35:05;30.11;42.04
40059;SHT31;25763;49.972;8.568;2023-06-26T14:37:30;30.07;42.65
40059;SHT31;25763;49.972;8.568;2023-06-26T14:39:56;30.00;42.87
40059;SHT31;25763;49.972;8.568;2023-06-26T14:42:23;29.93;43.43
40059;SHT31;25763;49.972;8.568;2023-06-26T14:44:48;29.81;42.98
40059;SHT31;25763;49.972;8.568;2023-06-26T14:47:18;29.97;43.59
40059;SHT31;25763;49.972;8.568;2023-06-26T14:49:44;29.94;44.24
40059;SHT31;25763;49.972;8.568;2023-06-26T14:52:10;29.90;43.26
40059;SHT31;25763;49.972;8.568;2023-06-26T14:54:35;29.83;42.78
40059;SHT31;25763;49.972;8.568;2023-06-26T14:57:05;29.90;42.62
40059;SHT31;25763;49.972;8.568;2023-06-26T14:59:31;29.94;41.20
40059;SHT31;25763;49.972;8.568;2023-06-26T15:01:56;29.93;42.16
40059;SHT31;25763;49.972;8.568;2023-06-26T15:04:21;30.10;41.73
40059;SHT31;25763;49.972;8.568;2023-06-26T15:06:47;30.09;41.90
40059;SHT31;25763;49.972;8.568;2023-06-26T15:09:12;29.88;41.81
40059;SHT31;25763;49.972;8.568;2023-06-26T15:11:37;29.58;41.67
40059;SHT31;25763;49.972;8.568;2023-06-26T15:14:03;29.76;42.12
40059;SHT31;25763;49.972;8.568;2023-06-26T15:16:28;29.82;40.66
40059;SHT31;25763;49.972;8.568;2023-06-26T15:18:53;30.18;42.46
40059;SHT31;25763;49.972;8.568;2023-06-26T15:21:19;30.23;39.90
40059;SHT31;25763;49.972;8.568;2023-06-26T15:23:45;30.06;41.51
40059;SHT31;25763;49.972;8.568;2023-06-26T15:26:11;29.73;38.39
40059;SHT31;25763;49.972;8.568;2023-06-26T15:28:36;30.10;41.23
40059;SHT31;25763;49.972;8.568;2023-06-26T15:31:01;30.06;39.37
40059;SHT31;25763;49.972;8.568;2023-06-26T15:33:27;29.59;39.40
40059;SHT31;25763;49.972;8.568;2023-06-26T15:35:52;29.37;39.84
40059;SHT31;25763;49.972;8.568;2023-06-26T15:38:17;29.22;40.37
40059;SHT31;25763;49.972;8.568;2023-06-26T15:40:43;29.20;40.07
40059;SHT31;25763;49.972;8.568;2023-06-26T15:43:08;29.00;39.43